createdAt,value
2023-02-06T00:00:12.463Z,4.55
2023-02-06T00:02:40.186Z,4.40
2023-02-06T00:05:08.571Z,4.82
2023-02-06T00:07:36.256Z,4.82
2023-02-06T00:10:04.148Z,5.15
2023-02-06T00:12:32.334Z,3.85
2023-02-06T00:15:00.166Z,4.82
2023-02-06T00:17:29.201Z,4.25
2023-02-06T00:19:56.947Z,5.40
2023-02-06T00:22:24.631Z,5.47
2023-02-06T00:24:52.350Z,5.47
2023-02-06T00:27:20.034Z,5.30
2023-02-06T00:29:47.738Z,5.13
2023-02-06T00:32:15.499Z,4.47
2023-02-06T00:34:44.609Z,5.63
2023-02-06T00:37:12.905Z,6.18
2023-02-06T00:39:40.609Z,5.10
2023-02-06T00:42:08.434Z,5.30
2023-02-06T00:44:36.164Z,5.90
2023-02-06T00:47:03.848Z,5.80
2023-02-06T00:49:31.559Z,6.07
2023-02-06T00:52:00.655Z,5.25
2023-02-06T00:54:28.556Z,5.63
2023-02-06T00:56:56.265Z,5.50
2023-02-06T00:59:24.041Z,6.25
2023-02-06T01:01:51.779Z,5.60
2023-02-06T01:04:19.552Z,6.07
2023-02-06T01:06:47.353Z,5.95
2023-02-06T01:09:16.466Z,5.90
2023-02-06T01:11:44.221Z,5.50
2023-02-06T01:14:12.136Z,6.30
2023-02-06T01:16:39.829Z,5.95
2023-02-06T01:19:07.577Z,6.03
2023-02-06T01:21:35.371Z,6.18
2023-02-06T01:24:03.105Z,6.50
2023-02-06T01:26:32.243Z,6.18
2023-02-06T01:28:59.990Z,6.40
2023-02-06T01:31:29.950Z,6.97
2023-02-06T01:33:59.110Z,6.55
2023-02-06T01:36:27.781Z,5.75
2023-02-06T01:38:55.696Z,5.88
2023-02-06T01:41:24.344Z,6.35
2023-02-06T01:44:10.708Z,5.57
2023-02-06T01:46:39.418Z,6.18
2023-02-06T01:49:09.152Z,6.40
2023-02-06T01:51:37.113Z,5.70
2023-02-06T01:54:08.360Z,6.43
2023-02-06T01:56:40.053Z,5.78
2023-02-06T01:59:09.490Z,6.38
2023-02-06T02:01:37.234Z,6.68
2023-02-06T02:04:08.225Z,5.45
2023-02-06T02:06:36.062Z,5.80
2023-02-06T02:09:05.002Z,6.10
2023-02-06T02:11:34.983Z,6.70
2023-02-06T02:14:05.197Z,6.53
2023-02-06T02:16:42.937Z,6.43
2023-02-06T02:19:37.790Z,5.85
2023-02-06T02:22:40.757Z,6.22
2023-02-06T02:25:42.665Z,6.50
2023-02-06T02:28:37.365Z,6.47
2023-02-06T02:31:20.869Z,6.47
2023-02-06T02:34:21.492Z,5.95
2023-02-06T02:36:56.790Z,6.50
2023-02-06T02:39:32.552Z,6.00
2023-02-06T02:42:06.335Z,5.28
2023-02-06T02:44:41.385Z,5.15
2023-02-06T02:47:12.856Z,5.05
2023-02-06T02:49:41.683Z,5.75
2023-02-06T02:52:10.767Z,5.25
2023-02-06T02:54:38.581Z,4.63
2023-02-06T02:57:09.767Z,4.20
2023-02-06T02:59:40.303Z,5.05
2023-02-06T03:02:13.058Z,5.22
2023-02-06T03:04:46.976Z,4.68
2023-02-06T03:07:25.332Z,4.35
2023-02-06T03:10:04.008Z,4.45
2023-02-06T03:12:40.782Z,4.82
2023-02-06T03:15:16.128Z,5.57
2023-02-06T03:17:50.334Z,4.97
2023-02-06T03:20:18.277Z,5.15
2023-02-06T03:22:50.329Z,4.97
2023-02-06T03:25:26.086Z,5.25
2023-02-06T03:27:55.395Z,4.65
2023-02-06T03:30:25.487Z,5.03
2023-02-06T03:33:02.830Z,4.57
2023-02-06T03:35:35.987Z,4.63
2023-02-06T03:38:07.740Z,4.45
2023-02-06T03:40:36.024Z,4.88
2023-02-06T03:43:05.750Z,4.70
2023-02-06T03:45:37.869Z,4.57
2023-02-06T03:48:11.684Z,4.75
2023-02-06T03:50:44.064Z,5.43
2023-02-06T03:53:15.270Z,5.15
2023-02-06T03:55:45.048Z,5.15
2023-02-06T03:58:15.116Z,5.55
2023-02-06T04:00:44.918Z,6.53
2023-02-06T04:03:14.769Z,6.07
2023-02-06T04:05:42.519Z,5.70
2023-02-06T04:08:10.655Z,6.70
2023-02-06T04:10:39.713Z,6.15
2023-02-06T04:13:07.490Z,5.65
2023-02-06T04:15:36.958Z,6.85
2023-02-06T04:18:06.133Z,5.82
2023-02-06T04:20:34.174Z,5.85
2023-02-06T04:23:01.955Z,5.30
2023-02-06T04:25:29.689Z,5.97
2023-02-06T04:27:59.102Z,5.70
2023-02-06T04:30:26.949Z,6.05
2023-02-06T04:32:54.727Z,5.55
2023-02-06T04:35:22.735Z,6.55
2023-02-06T04:37:50.439Z,5.53
2023-02-06T04:40:18.580Z,5.97
2023-02-06T04:42:46.302Z,5.90
2023-02-06T04:45:15.539Z,6.05
2023-02-06T04:47:43.450Z,6.03
2023-02-06T04:50:11.556Z,5.93
2023-02-06T04:52:39.249Z,6.95
2023-02-06T04:55:08.130Z,6.55
2023-02-06T04:57:35.874Z,6.82
2023-02-06T05:00:03.802Z,7.30
2023-02-06T05:02:37.267Z,7.25
2023-02-06T05:05:05.332Z,7.55
2023-02-06T05:07:33.162Z,6.93
2023-02-06T05:10:00.852Z,8.10
2023-02-06T05:12:29.015Z,8.18
2023-02-06T05:14:56.843Z,6.78
2023-02-06T05:17:24.575Z,7.38
2023-02-06T05:19:53.712Z,7.35
2023-02-06T05:22:21.394Z,7.65
2023-02-06T05:24:49.185Z,8.10
2023-02-06T05:27:16.945Z,7.03
2023-02-06T05:29:44.737Z,7.65
2023-02-06T05:32:12.442Z,7.90
2023-02-06T05:34:40.130Z,8.55
2023-02-06T05:37:09.194Z,8.15
2023-02-06T05:39:36.980Z,7.63
2023-02-06T05:42:05.044Z,7.57
2023-02-06T05:44:32.864Z,7.20
2023-02-06T05:47:00.576Z,8.23
2023-02-06T05:49:28.369Z,7.10
2023-02-06T05:51:56.164Z,7.95
2023-02-06T05:54:25.425Z,8.70
2023-02-06T05:56:53.182Z,7.40
2023-02-06T05:59:21.099Z,8.43
2023-02-06T06:01:48.890Z,8.20
2023-02-06T06:04:16.741Z,7.13
2023-02-06T06:06:44.432Z,8.77
2023-02-06T06:09:12.164Z,8.30
2023-02-06T06:11:41.309Z,7.70
2023-02-06T06:14:09.248Z,8.25
2023-02-06T06:16:36.990Z,8.77
2023-02-06T06:19:04.779Z,8.32
2023-02-06T06:21:33.792Z,8.27
2023-02-06T06:24:01.856Z,7.90
2023-02-06T06:26:29.672Z,6.88
2023-02-06T06:28:58.825Z,7.28
2023-02-06T06:31:26.615Z,7.28
2023-02-06T06:33:54.659Z,7.07
2023-02-06T06:36:22.489Z,7.93
2023-02-06T06:38:50.352Z,6.75
2023-02-06T06:41:18.140Z,8.32
2023-02-06T06:43:45.896Z,7.28
2023-02-06T06:46:14.913Z,7.75
2023-02-06T06:48:42.787Z,7.43
2023-02-06T06:51:10.519Z,6.03
2023-02-06T06:53:39.977Z,6.40
2023-02-06T06:56:09.602Z,6.82
2023-02-06T06:58:37.385Z,6.85
2023-02-06T07:01:05.602Z,6.57
2023-02-06T07:03:34.684Z,5.35
2023-02-06T07:06:02.540Z,5.80
2023-02-06T07:08:30.846Z,6.78
2023-02-06T07:10:58.753Z,7.47
2023-02-06T07:13:26.472Z,5.20
2023-02-06T07:15:54.223Z,4.85
2023-02-06T07:18:22.464Z,5.18
2023-02-06T07:20:51.780Z,4.75
2023-02-06T07:23:19.570Z,5.30
2023-02-06T07:25:47.321Z,5.45
2023-02-06T07:28:15.163Z,4.82
2023-02-06T07:30:43.052Z,5.72
2023-02-06T07:33:10.942Z,5.03
2023-02-06T07:35:38.871Z,4.53
2023-02-06T07:38:08.147Z,5.80
2023-02-06T07:40:44.571Z,4.70
2023-02-06T07:43:13.444Z,4.78
2023-02-06T07:45:41.634Z,4.15
2023-02-06T07:48:09.703Z,4.93
2023-02-06T07:50:37.594Z,7.35
2023-02-06T07:53:05.571Z,5.55
2023-02-06T07:55:37.667Z,5.53
2023-02-06T07:58:05.631Z,6.13
2023-02-06T08:00:33.776Z,5.40
2023-02-06T08:03:01.508Z,5.72
2023-02-06T08:05:29.359Z,6.53
2023-02-06T08:07:57.198Z,6.00
2023-02-06T08:10:25.274Z,5.72
2023-02-06T08:12:54.441Z,6.00
2023-02-06T08:15:22.155Z,6.05
2023-02-06T08:17:49.876Z,6.18
2023-02-06T08:20:17.858Z,6.30
2023-02-06T08:22:46.720Z,6.32
2023-02-06T08:25:14.533Z,6.45
2023-02-06T08:27:42.290Z,6.50
2023-02-06T08:30:14.279Z,6.50
2023-02-06T08:32:42.078Z,6.20
2023-02-06T08:35:09.863Z,5.85
2023-02-06T08:37:37.628Z,6.57
2023-02-06T08:40:06.280Z,6.68
2023-02-06T08:42:34.160Z,7.03
2023-02-06T08:45:01.929Z,7.40
2023-02-06T08:47:30.985Z,7.28
2023-02-06T08:49:59.313Z,6.10
2023-02-06T08:52:28.256Z,7.28
2023-02-06T08:54:55.985Z,7.38
2023-02-06T08:57:23.670Z,6.57
2023-02-06T08:59:51.715Z,7.75
2023-02-06T09:02:21.180Z,7.20
2023-02-06T09:04:52.534Z,6.55
2023-02-06T09:07:22.291Z,7.65
2023-02-06T09:09:52.035Z,7.35
2023-02-06T09:12:22.178Z,10.57
2023-02-06T09:14:51.990Z,7.43
2023-02-06T09:17:21.611Z,6.45
2023-02-06T09:19:52.578Z,7.25
2023-02-06T09:22:22.159Z,7.43
2023-02-06T09:24:51.991Z,6.85
2023-02-06T09:27:22.154Z,6.68
2023-02-06T09:29:51.834Z,6.25
2023-02-06T09:32:21.615Z,6.50
2023-02-06T09:34:53.040Z,6.72
2023-02-06T09:37:24.138Z,6.70
2023-02-06T09:39:53.800Z,6.95
2023-02-06T09:42:36.304Z,12.10
2023-02-06T09:45:10.237Z,7.57
2023-02-06T09:47:44.530Z,6.75
2023-02-06T09:50:26.022Z,5.97
2023-02-06T09:53:08.584Z,6.22
2023-02-06T09:55:42.691Z,5.10
2023-02-06T09:58:22.640Z,5.13
2023-02-06T10:00:54.405Z,5.63
2023-02-06T10:03:39.791Z,6.15
2023-02-06T10:06:19.050Z,6.00
2023-02-06T10:08:52.510Z,5.50
2023-02-06T10:11:28.289Z,5.40
2023-02-06T10:14:00.435Z,6.25
2023-02-06T10:16:39.632Z,5.68
2023-02-06T10:19:15.851Z,5.68
2023-02-06T10:24:24.772Z,5.65
2023-02-06T10:26:54.555Z,5.20
2023-02-06T10:29:26.540Z,6.18
2023-02-06T10:32:03.913Z,5.80
2023-02-06T10:34:45.412Z,5.25
2023-02-06T10:37:32.104Z,5.53
2023-02-06T10:40:19.204Z,5.15
2023-02-06T10:42:54.468Z,5.68
2023-02-06T10:45:35.324Z,5.72
2023-02-06T10:48:11.529Z,5.45
2023-02-06T10:50:44.091Z,6.00
2023-02-06T10:53:19.292Z,5.00
2023-02-06T10:55:52.388Z,4.65
2023-02-06T10:58:25.059Z,4.50
2023-02-06T11:00:54.550Z,5.47
2023-02-06T11:03:25.334Z,5.57
2023-02-06T11:05:53.897Z,4.65
2023-02-06T11:08:27.297Z,4.75
2023-02-06T11:10:55.929Z,6.40
2023-02-06T11:13:28.138Z,4.70
2023-02-06T11:16:02.423Z,4.90
2023-02-06T11:18:34.141Z,4.65
2023-02-06T11:21:02.663Z,5.15
2023-02-06T11:23:34.628Z,4.18
2023-02-06T11:26:10.417Z,4.40
2023-02-06T11:28:41.410Z,4.15
2023-02-06T11:31:10.416Z,3.90
2023-02-06T11:33:47.191Z,3.97
2023-02-06T11:36:27.162Z,4.28
2023-02-06T11:38:58.438Z,4.40
2023-02-06T11:41:26.207Z,4.47
2023-02-06T11:44:01.454Z,5.20
2023-02-06T11:46:30.899Z,4.43
2023-02-06T11:49:08.443Z,4.38
2023-02-06T11:51:54.277Z,5.60
2023-02-06T11:54:29.254Z,6.30
2023-02-06T11:57:00.215Z,6.43
2023-02-06T11:59:28.607Z,3.67
2023-02-06T12:01:57.510Z,3.80
2023-02-06T12:04:31.510Z,3.80
2023-02-06T12:07:04.635Z,3.00
2023-02-06T12:09:33.802Z,3.33
2023-02-06T12:12:05.930Z,2.95
2023-02-06T12:14:39.327Z,2.30
2023-02-06T12:17:21.508Z,2.78
2023-02-06T12:19:52.772Z,2.38
2023-02-06T12:22:24.065Z,2.38
2023-02-06T12:24:57.276Z,2.28
2023-02-06T12:27:30.196Z,2.60
2023-02-06T12:30:02.406Z,2.70
2023-02-06T12:32:35.405Z,2.33
2023-02-06T12:35:15.408Z,2.72
2023-02-06T12:37:48.830Z,3.33
2023-02-06T12:40:28.106Z,2.38
2023-02-06T12:43:00.993Z,2.20
2023-02-06T12:45:39.976Z,2.42
2023-02-06T12:48:15.526Z,2.08
2023-02-06T12:50:47.570Z,1.98
2023-02-06T12:53:19.039Z,2.08
2023-02-06T12:55:53.850Z,1.83
2023-02-06T12:58:24.764Z,2.00
2023-02-06T13:01:03.295Z,2.00
2023-02-06T13:03:36.502Z,2.28
2023-02-06T13:06:14.231Z,2.05
2023-02-06T13:08:47.198Z,2.40
2023-02-06T13:11:31.753Z,2.40
2023-02-06T13:14:06.683Z,2.10
2023-02-06T13:16:56.671Z,2.28
2023-02-06T13:19:31.039Z,2.40
2023-02-06T13:22:32.845Z,2.38
2023-02-06T13:25:03.328Z,2.30
2023-02-06T13:27:39.984Z,1.90
2023-02-06T13:30:47.426Z,2.75
2023-02-06T13:33:16.799Z,1.95
2023-02-06T13:35:56.483Z,2.30
2023-02-06T13:38:38.274Z,1.90
2023-02-06T13:41:29.829Z,2.25
2023-02-06T13:44:01.839Z,1.90
2023-02-06T13:46:43.529Z,1.50
2023-02-06T13:49:34.024Z,1.80
2023-02-06T13:52:07.748Z,1.67
2023-02-06T13:54:51.357Z,2.22
2023-02-06T13:57:32.862Z,2.03
2023-02-06T14:00:04.530Z,2.75
2023-02-06T14:02:38.172Z,1.98
2023-02-06T14:05:10.657Z,2.17
2023-02-06T14:08:13.227Z,8.68
2023-02-06T14:11:06.025Z,2.83
2023-02-06T14:13:52.653Z,3.55
2023-02-06T14:16:32.285Z,2.60
2023-02-06T14:19:04.315Z,2.20
2023-02-06T14:21:40.165Z,2.60
2023-02-06T14:24:20.040Z,2.13
2023-02-06T14:27:01.848Z,1.80
2023-02-06T14:29:41.196Z,1.80
2023-02-06T14:32:32.531Z,1.80
2023-02-06T14:35:22.160Z,2.20
2023-02-06T14:38:17.514Z,2.05
2023-02-06T14:40:49.871Z,2.05
2023-02-06T14:43:20.615Z,1.80
2023-02-06T14:46:06.196Z,1.65
2023-02-06T14:48:40.932Z,1.70
2023-02-06T14:51:17.313Z,1.70
2023-02-06T14:53:53.552Z,2.20
2023-02-06T14:56:27.912Z,1.70
2023-02-06T14:58:56.359Z,2.55
2023-02-06T15:01:27.633Z,2.42
2023-02-06T15:04:10.752Z,1.83
2023-02-06T15:06:40.400Z,1.92
2023-02-06T15:09:08.904Z,2.30
2023-02-06T15:11:36.750Z,1.80
2023-02-06T15:14:08.938Z,2.25
2023-02-06T15:16:47.175Z,1.95
2023-02-06T15:19:21.603Z,1.92
2023-02-06T15:21:50.085Z,1.70
2023-02-06T15:24:38.599Z,2.53
2023-02-06T15:27:11.826Z,1.85
2023-02-06T15:29:39.712Z,2.88
2023-02-06T15:32:17.830Z,2.22
2023-02-06T15:34:47.501Z,2.17
2023-02-06T15:37:28.533Z,2.20
2023-02-06T15:39:58.256Z,8.93
2023-02-06T15:42:26.307Z,5.63
2023-02-06T15:44:54.137Z,4.93
2023-02-06T15:47:22.775Z,37.30
2023-02-06T15:49:53.194Z,14.07
2023-02-06T15:52:35.792Z,5.28
2023-02-06T15:55:04.697Z,1.95
2023-02-06T15:57:35.546Z,2.75
2023-02-06T16:00:09.173Z,6.93
2023-02-06T16:02:38.423Z,3.40
2023-02-06T16:05:19.748Z,2.17
2023-02-06T16:07:48.775Z,2.08
2023-02-06T16:10:22.892Z,2.30
2023-02-06T16:12:52.204Z,2.05
2023-02-06T16:15:31.530Z,1.88
2023-02-06T16:18:01.200Z,2.38
2023-02-06T16:20:39.607Z,2.75
2023-02-06T16:23:25.596Z,1.95
2023-02-06T16:26:07.298Z,2.28
2023-02-06T16:28:41.923Z,2.10
2023-02-06T16:31:13.773Z,2.55
2023-02-06T16:33:45.427Z,2.45
2023-02-06T16:36:16.175Z,3.10
2023-02-06T16:38:51.031Z,3.58
2023-02-06T16:41:32.889Z,3.20
2023-02-06T16:44:01.731Z,3.40
2023-02-06T16:46:29.915Z,8.48
2023-02-06T16:48:59.130Z,2.33
2023-02-06T16:51:30.820Z,2.05
2023-02-06T16:53:59.511Z,3.70
2023-02-06T16:56:27.284Z,2.80
2023-02-06T16:58:55.085Z,1.75
2023-02-06T17:01:26.443Z,1.88
2023-02-06T17:03:54.896Z,1.65
2023-02-06T17:06:25.441Z,2.63
2023-02-06T17:08:56.933Z,2.10
2023-02-06T17:11:24.906Z,2.05
2023-02-06T17:13:53.079Z,1.70
2023-02-06T17:16:23.465Z,1.95
2023-02-06T17:18:51.877Z,2.22
2023-02-06T17:21:21.792Z,2.28
2023-02-06T17:23:51.116Z,2.17
2023-02-06T17:26:23.224Z,1.80
2023-02-06T17:28:52.349Z,1.33
2023-02-06T17:31:20.768Z,1.42
2023-02-06T17:33:48.892Z,1.48
2023-02-06T17:36:18.195Z,2.05
2023-02-06T17:38:46.256Z,2.05
2023-02-06T17:41:14.097Z,2.50
2023-02-06T17:43:43.367Z,1.85
2023-02-06T17:46:11.948Z,1.52
2023-02-06T17:48:42.770Z,1.50
2023-02-06T17:51:10.888Z,1.73
2023-02-06T17:53:38.960Z,1.55
2023-02-06T17:56:08.682Z,2.10
2023-02-06T17:58:36.843Z,1.58
2023-02-06T18:01:11.064Z,1.48
2023-02-06T18:03:38.899Z,1.42
2023-02-06T18:06:07.096Z,1.50
2023-02-06T18:08:35.143Z,1.70
2023-02-06T18:11:09.422Z,1.48
2023-02-06T18:13:37.343Z,1.60
2023-02-06T18:16:07.939Z,1.20
2023-02-06T18:18:35.977Z,1.50
2023-02-06T18:21:04.562Z,1.95
2023-02-06T18:23:32.566Z,1.67
2023-02-06T18:26:03.346Z,1.40
2023-02-06T18:28:31.647Z,2.17
2023-02-06T18:31:02.002Z,6.88
2023-02-06T18:33:33.802Z,9.70
2023-02-06T18:36:06.195Z,4.90
2023-02-06T18:38:34.252Z,2.97
2023-02-06T18:41:04.296Z,2.30
2023-02-06T18:43:31.813Z,1.80
2023-02-06T18:46:06.789Z,1.63
2023-02-06T18:48:36.183Z,2.13
2023-02-06T18:51:08.045Z,1.95
2023-02-06T18:53:36.127Z,1.75
2023-02-06T18:56:04.642Z,1.60
2023-02-06T18:58:32.494Z,1.60
2023-02-06T19:01:00.421Z,1.45
2023-02-06T19:03:28.458Z,1.50
2023-02-06T19:05:57.720Z,1.88
2023-02-06T19:08:25.635Z,2.25
2023-02-06T19:10:57.395Z,1.95
2023-02-06T19:13:25.301Z,2.17
2023-02-06T19:16:05.756Z,2.13
2023-02-06T19:18:38.691Z,2.75
2023-02-06T19:21:11.654Z,2.28
2023-02-06T19:23:40.093Z,2.22
2023-02-06T19:26:09.214Z,1.92
2023-02-06T19:28:38.145Z,2.15
2023-02-06T19:31:07.409Z,2.35
2023-02-06T19:33:37.537Z,2.33
2023-02-06T19:36:07.533Z,2.38
2023-02-06T19:38:37.028Z,2.97
2023-02-06T19:41:08.553Z,2.60
2023-02-06T19:43:36.938Z,2.85
2023-02-06T19:46:06.110Z,2.58
2023-02-06T19:48:34.787Z,2.05
2023-02-06T19:51:06.789Z,2.00
2023-02-06T19:53:36.383Z,1.83
2023-02-06T19:56:05.435Z,1.70
2023-02-06T19:58:33.766Z,1.77
2023-02-06T20:01:09.031Z,1.42
2023-02-06T20:03:36.962Z,1.63
2023-02-06T20:06:06.532Z,1.90
2023-02-06T20:08:35.911Z,2.45
2023-02-06T20:11:05.680Z,1.90
2023-02-06T20:13:33.797Z,1.77
2023-02-06T20:16:03.672Z,1.73
2023-02-06T20:18:32.012Z,2.38
2023-02-06T20:21:00.036Z,2.05
2023-02-06T20:23:28.610Z,1.73
2023-02-06T20:25:58.253Z,1.75
2023-02-06T20:28:27.643Z,1.90
2023-02-06T20:30:55.832Z,1.52
2023-02-06T20:33:24.104Z,2.00
2023-02-06T20:35:52.012Z,1.80
2023-02-06T20:38:19.939Z,2.00
2023-02-06T20:40:51.264Z,1.70
2023-02-06T20:43:20.732Z,1.77
2023-02-06T20:45:48.685Z,2.50
2023-02-06T20:48:16.470Z,1.88
2023-02-06T20:50:44.222Z,2.55
2023-02-06T20:53:12.012Z,2.17
2023-02-06T20:55:43.977Z,2.13
2023-02-06T20:58:12.006Z,2.75
2023-02-06T21:00:41.598Z,1.75
2023-02-06T21:03:09.369Z,1.60
2023-02-06T21:05:37.243Z,1.45
2023-02-06T21:08:05.371Z,1.98
2023-02-06T21:10:33.243Z,1.77
2023-02-06T21:13:00.971Z,2.08
2023-02-06T21:15:28.783Z,1.65
2023-02-06T21:17:58.049Z,1.73
2023-02-06T21:20:25.827Z,1.60
2023-02-06T21:22:55.078Z,1.52
2023-02-06T21:25:23.837Z,2.05
2023-02-06T21:27:51.667Z,1.67
2023-02-06T21:30:19.587Z,1.75
2023-02-06T21:32:47.417Z,1.35
2023-02-06T21:35:16.822Z,1.40
2023-02-06T21:37:44.670Z,1.70
2023-02-06T21:40:12.963Z,1.80
2023-02-06T21:42:40.694Z,1.30
2023-02-06T21:45:09.777Z,1.50
2023-02-06T21:47:37.537Z,1.77
2023-02-06T21:50:06.158Z,1.52
2023-02-06T21:52:37.717Z,1.35
2023-02-06T21:55:07.603Z,1.73
2023-02-06T21:57:35.639Z,1.60
2023-02-06T22:00:03.379Z,1.70
2023-02-06T22:02:31.224Z,1.60
2023-02-06T22:04:59.584Z,1.98
2023-02-06T22:07:27.383Z,1.88
2023-02-06T22:09:56.497Z,1.83
2023-02-06T22:12:24.398Z,2.08
2023-02-06T22:14:52.178Z,1.95
2023-02-06T22:17:19.881Z,2.00
2023-02-06T22:19:48.712Z,1.90
2023-02-06T22:22:16.536Z,2.10
2023-02-06T22:24:44.566Z,2.00
2023-02-06T22:27:13.734Z,2.35
2023-02-06T22:29:41.707Z,2.10
2023-02-06T22:32:09.524Z,2.00
2023-02-06T22:34:37.321Z,2.05
2023-02-06T22:37:05.149Z,1.60
2023-02-06T22:39:32.975Z,2.13
2023-02-06T22:42:00.845Z,1.95
2023-02-06T22:44:29.937Z,1.48
2023-02-06T22:46:57.735Z,1.73
2023-02-06T22:49:26.302Z,1.83
2023-02-06T22:51:54.375Z,2.10
2023-02-06T22:54:22.193Z,1.45
2023-02-06T22:56:50.100Z,1.85
2023-02-06T22:59:20.065Z,1.50
2023-02-06T23:01:51.353Z,1.40
2023-02-06T23:04:21.221Z,1.70
2023-02-06T23:06:49.762Z,1.67
2023-02-06T23:09:20.372Z,1.40
2023-02-06T23:11:48.946Z,1.70
2023-02-06T23:14:18.569Z,1.75
2023-02-06T23:16:47.402Z,1.60
2023-02-06T23:19:17.552Z,1.70
2023-02-06T23:21:47.389Z,1.77
2023-02-06T23:24:15.861Z,1.70
2023-02-06T23:26:45.624Z,1.52
2023-02-06T23:29:15.706Z,1.90
2023-02-06T23:31:43.634Z,1.70
2023-02-06T23:34:11.637Z,1.75
2023-02-06T23:36:41.238Z,2.20
2023-02-06T23:39:08.994Z,1.80
2023-02-06T23:41:36.694Z,2.05
2023-02-06T23:44:06.866Z,2.15
2023-02-06T23:46:36.784Z,1.88
2023-02-06T23:49:04.683Z,1.80
2023-02-06T23:51:32.907Z,2.00
2023-02-06T23:54:02.061Z,2.20
2023-02-06T23:56:31.686Z,2.42
2023-02-06T23:59:01.393Z,2.28
